Time,TemperatureF,DewpointF,PressureIn,WindDirection,WindDirectionDegrees,WindSpeedMPH,WindSpeedGustMPH,Humidity,HourlyPrecipIn,Conditions,Clouds,dailyrainin,SoftwareType,DateUTC
2013-04-03 00:09:00,41.5,22.7,30.17,NNE,22,0.0,0.0,47,0.00,,,0.00,WUHU21623XXSP,2013-04-03 07:09:00,
2013-04-03 00:15:00,41.2,21.8,30.17,SE,135,0.0,0.0,46,0.00,,,0.00,WUHU21623XXSP,2013-04-03 07:15:00,
2013-04-03 00:24:00,40.8,22.0,30.17,ENE,67,0.0,0.0,47,0.00,,,0.00,WUHU21623XXSP,2013-04-03 07:24:00,
2013-04-03 00:30:00,40.6,21.8,30.16,SE,135,0.0,0.0,47,0.00,,,0.00,WUHU21623XXSP,2013-04-03 07:30:00,
2013-04-03 00:37:00,40.3,22.0,30.16,East,90,0.0,0.0,48,0.00,,,0.00,WUHU21623XXSP,2013-04-03 07:37:00,
2013-04-03 00:45:00,39.7,21.7,30.16,NE,45,0.0,0.0,48,0.00,,,0.00,WUHU21623XXSP,2013-04-03 07:45:00,
2013-04-03 00:57:00,39.4,21.2,30.17,NE,45,0.0,0.0,48,0.00,,,0.00,WUHU21623XXSP,2013-04-03 07:57:00,
2013-04-03 01:02:00,39.4,21.2,30.17,NE,45,0.0,0.0,48,0.00,,,0.00,WUHU21623XXSP,2013-04-03 08:02:00,
2013-04-03 01:27:00,38.1,20.6,30.17,ENE,67,0.0,0.0,49,0.00,,,0.00,WUHU21623XXSP,2013-04-03 08:27:00,
2013-04-03 01:32:00,37.9,21.0,30.16,NE,45,0.0,0.0,50,0.00,,,0.00,WUHU21623XXSP,2013-04-03 08:32:00,
2013-04-03 02:13:00,36.5,19.7,30.16,NE,45,0.0,0.0,50,0.00,,,0.00,WUHU21623XXSP,2013-04-03 09:13:00,
2013-04-03 02:18:00,36.3,19.5,30.16,ENE,67,0.0,0.0,51,0.00,,,0.00,WUHU21623XXSP,2013-04-03 09:18:00,
2013-04-03 02:23:00,36.1,19.8,30.17,SSE,157,0.0,0.0,51,0.00,,,0.00,WUHU21623XXSP,2013-04-03 09:23:00,
2013-04-03 02:33:00,35.8,19.5,30.17,ESE,112,0.0,0.0,51,0.00,,,0.00,WUHU21623XXSP,2013-04-03 09:33:00,
2013-04-03 02:39:00,35.6,19.3,30.17,East,90,0.0,0.0,51,0.00,,,0.00,WUHU21623XXSP,2013-04-03 09:39:00,
2013-04-03 02:47:00,35.2,19.1,30.17,East,90,0.0,0.0,51,0.00,,,0.00,WUHU21623XXSP,2013-04-03 09:47:00,
2013-04-03 02:52:00,35.2,18.9,30.17,East,90,0.0,0.0,51,0.00,,,0.00,WUHU21623XXSP,2013-04-03 09:52:00,
2013-04-03 02:57:00,35.2,18.9,30.17,East,90,0.0,0.0,51,0.00,,,0.00,WUHU21623XXSP,2013-04-03 09:57:00,
2013-04-03 03:02:00,34.9,19.0,30.17,East,90,0.0,0.0,52,0.00,,,0.00,WUHU21623XXSP,2013-04-03 10:02:00,
2013-04-03 03:09:00,34.7,18.8,30.17,NE,45,0.0,0.0,53,0.00,,,0.00,WUHU21623XXSP,2013-04-03 10:09:00,
2013-04-03 03:14:00,34.7,19.3,30.17,ENE,67,0.0,0.0,53,0.00,,,0.00,WUHU21623XXSP,2013-04-03 10:14:00,
2013-04-03 03:28:00,34.3,18.9,30.17,SW,225,0.0,0.0,53,0.00,,,0.00,WUHU21623XXSP,2013-04-03 10:28:00,
2013-04-03 03:36:00,34.3,18.9,30.17,South,180,0.0,0.0,53,0.00,,,0.00,WUHU21623XXSP,2013-04-03 10:36:00,
2013-04-03 03:43:00,34.2,18.7,30.17,SE,135,0.0,0.0,53,0.00,,,0.00,WUHU21623XXSP,2013-04-03 10:43:00,
2013-04-03 03:48:00,34.0,19.0,30.17,NW,315,0.0,0.0,54,0.00,,,0.00,WUHU21623XXSP,2013-04-03 10:48:00,
2013-04-03 04:00:00,33.6,18.6,30.17,South,180,0.0,0.0,54,0.00,,,0.00,WUHU21623XXSP,2013-04-03 11:00:00,
2013-04-03 04:05:00,33.6,18.6,30.17,South,180,0.0,0.0,54,0.00,,,0.00,WUHU21623XXSP,2013-04-03 11:05:00,
2013-04-03 04:28:00,32.9,18.0,30.16,South,180,0.0,0.0,54,0.00,,,0.00,WUHU21623XXSP,2013-04-03 11:28:00,
2013-04-03 04:33:00,32.7,17.8,30.16,South,180,0.0,0.0,54,0.00,,,0.00,WUHU21623XXSP,2013-04-03 11:33:00,
2013-04-03 04:38:00,32.7,18.2,30.16,ENE,67,0.0,0.0,55,0.00,,,0.00,WUHU21623XXSP,2013-04-03 11:38:00,
2013-04-03 04:43:00,32.5,18.1,30.16,ENE,67,0.0,0.0,55,0.00,,,0.00,WUHU21623XXSP,2013-04-03 11:43:00,
2013-04-03 04:54:00,32.2,17.8,30.16,ENE,67,0.0,0.0,55,0.00,,,0.00,WUHU21623XXSP,2013-04-03 11:54:00,
2013-04-03 04:59:00,32.2,17.8,30.16,ENE,67,0.0,0.0,55,0.00,,,0.00,WUHU21623XXSP,2013-04-03 11:59:00,
2013-04-03 05:04:00,32.2,18.2,30.16,ENE,67,0.0,0.0,56,0.00,,,0.00,WUHU21623XXSP,2013-04-03 12:04:00,
2013-04-03 05:09:00,31.8,17.9,30.16,ENE,67,0.0,0.0,56,0.00,,,0.00,WUHU21623XXSP,2013-04-03 12:09:00,
2013-04-03 05:14:00,31.8,17.9,30.16,ENE,67,0.0,0.0,56,0.00,,,0.00,WUHU21623XXSP,2013-04-03 12:14:00,
2013-04-03 05:19:00,31.8,17.9,30.16,ENE,67,0.0,0.0,56,0.00,,,0.00,WUHU21623XXSP,2013-04-03 12:19:00,
2013-04-03 05:26:00,31.6,17.7,30.16,ENE,67,0.0,0.0,56,0.00,,,0.00,WUHU21623XXSP,2013-04-03 12:26:00,
2013-04-03 05:31:00,31.3,17.8,30.17,East,90,0.0,0.0,57,0.00,,,0.00,WUHU21623XXSP,2013-04-03 12:31:00,
2013-04-03 05:45:00,31.3,17.8,30.16,SE,135,0.0,0.0,57,0.00,,,0.00,WUHU21623XXSP,2013-04-03 12:45:00,
2013-04-03 05:58:00,31.3,18.2,30.16,SE,135,0.0,0.0,58,0.00,,,0.00,WUHU21623XXSP,2013-04-03 12:58:00,
2013-04-03 06:03:00,31.3,18.2,30.16,SE,135,0.0,0.0,58,0.00,,,0.00,WUHU21623XXSP,2013-04-03 13:03:00,
2013-04-03 06:08:00,31.1,18.0,30.17,ESE,112,0.0,0.0,58,0.00,,,0.00,WUHU21623XXSP,2013-04-03 13:08:00,
2013-04-03 06:17:00,30.9,18.0,30.17,SE,135,0.0,0.0,58,0.00,,,0.00,WUHU21623XXSP,2013-04-03 13:17:00,
2013-04-03 06:22:00,30.9,17.8,30.17,ESE,112,0.0,0.0,58,0.00,,,0.00,WUHU21623XXSP,2013-04-03 13:22:00,
2013-04-03 06:30:00,30.7,17.7,30.17,WNW,292,0.0,0.0,58,0.00,,,0.00,WUHU21623XXSP,2013-04-03 13:30:00,
2013-04-03 06:43:00,30.6,17.9,30.17,West,270,0.0,0.0,59,0.00,,,0.00,WUHU21623XXSP,2013-04-03 13:43:00,
2013-04-03 06:56:00,30.4,17.7,30.18,WSW,247,0.0,0.0,59,0.00,,,0.00,WUHU21623XXSP,2013-04-03 13:56:00,
2013-04-03 07:01:00,30.6,17.9,30.18,WSW,247,0.0,0.0,59,0.00,,,0.00,WUHU21623XXSP,2013-04-03 14:01:00,
2013-04-03 07:06:00,30.6,17.9,30.18,WSW,247,0.0,0.0,59,0.00,,,0.00,WUHU21623XXSP,2013-04-03 14:06:00,
2013-04-03 07:13:00,30.4,18.1,30.18,SSE,157,0.0,0.0,60,0.00,,,0.00,WUHU21623XXSP,2013-04-03 14:13:00,
2013-04-03 07:21:00,30.7,18.5,30.18,ESE,112,0.0,0.0,60,0.00,,,0.00,WUHU21623XXSP,2013-04-03 14:21:00,
2013-04-03 07:41:00,31.5,19.6,30.19,SSE,157,0.0,0.0,61,0.00,,,0.00,WUHU21623XXSP,2013-04-03 14:41:00,
2013-04-03 07:46:00,31.8,20.3,30.19,SE,135,0.0,0.0,62,0.00,,,0.00,WUHU21623XXSP,2013-04-03 14:46:00,
2013-04-03 07:52:00,32.4,21.2,30.19,ESE,112,0.0,0.0,63,0.00,,,0.00,WUHU21623XXSP,2013-04-03 14:52:00,
2013-04-03 07:57:00,32.9,22.0,30.19,SE,135,0.0,0.0,64,0.00,,,0.00,WUHU21623XXSP,2013-04-03 14:57:00,
2013-04-03 08:08:00,34.3,23.0,30.19,SSW,202,0.0,0.0,63,0.00,,,0.00,WUHU21623XXSP,2013-04-03 15:08:00,
2013-04-03 08:13:00,34.9,23.5,30.19,SSW,202,0.0,0.0,63,0.00,,,0.00,WUHU21623XXSP,2013-04-03 15:13:00,
2013-04-03 08:19:00,35.4,24.1,30.19,SE,135,0.0,0.0,63,0.00,,,0.00,WUHU21623XXSP,2013-04-03 15:19:00,
2013-04-03 08:26:00,36.1,24.7,30.19,West,270,0.0,0.0,63,0.00,,,0.00,WUHU21623XXSP,2013-04-03 15:26:00,
2013-04-03 08:43:00,38.3,26.6,30.19,SW,225,0.0,0.0,63,0.00,,,0.00,WUHU21623XXSP,2013-04-03 15:43:00,
2013-04-03 08:49:00,38.8,27.2,30.19,SSE,157,0.0,0.0,63,0.00,,,0.00,WUHU21623XXSP,2013-04-03 15:49:00,
2013-04-03 09:00:00,40.3,28.3,30.18,ESE,112,0.0,0.0,62,0.00,,,0.00,WUHU21623XXSP,2013-04-03 16:00:00,
2013-04-03 09:10:00,41.9,29.4,30.19,SSE,157,0.0,0.0,61,0.00,,,0.00,WUHU21623XXSP,2013-04-03 16:10:00,
2013-04-03 09:21:00,43.0,30.4,30.19,SE,135,0.0,0.0,61,0.00,,,0.00,WUHU21623XXSP,2013-04-03 16:21:00,
2013-04-03 09:32:00,44.8,31.5,30.18,East,90,0.0,0.0,60,0.00,,,0.00,WUHU21623XXSP,2013-04-03 16:32:00,
2013-04-03 09:39:00,45.3,32.3,30.18,SSE,157,0.0,0.0,60,0.00,,,0.00,WUHU21623XXSP,2013-04-03 16:39:00,
2013-04-03 09:54:00,47.8,33.1,30.18,South,180,0.0,0.0,58,0.00,,,0.00,WUHU21623XXSP,2013-04-03 16:54:00,
2013-04-03 10:02:00,48.7,34.6,30.18,ESE,112,0.0,0.0,58,0.00,,,0.00,WUHU21623XXSP,2013-04-03 17:02:00,
2013-04-03 10:28:00,51.6,35.0,30.18,SE,135,0.0,0.0,53,0.00,,,0.00,WUHU21623XXSP,2013-04-03 17:28:00,
2013-04-03 10:34:00,52.5,35.8,30.18,East,90,0.0,0.0,53,0.00,,,0.00,WUHU21623XXSP,2013-04-03 17:34:00,
2013-04-03 10:39:00,53.1,35.9,30.18,ESE,112,0.0,0.0,52,0.00,,,0.00,WUHU21623XXSP,2013-04-03 17:39:00,
2013-04-03 11:02:00,56.3,37.4,30.18,SSE,157,0.0,0.0,48,0.00,,,0.00,WUHU21623XXSP,2013-04-03 18:02:00,
2013-04-03 11:07:00,56.8,37.3,30.18,South,180,0.0,0.0,48,0.00,,,0.00,WUHU21623XXSP,2013-04-03 18:07:00,
2013-04-03 11:19:00,58.3,37.5,30.17,South,180,2.5,2.5,46,0.00,,,0.00,WUHU21623XXSP,2013-04-03 18:19:00,
2013-04-03 11:24:00,58.8,38.0,30.17,South,180,0.0,2.5,46,0.00,,,0.00,WUHU21623XXSP,2013-04-03 18:24:00,
2013-04-03 11:30:00,59.7,38.8,30.17,ESE,112,0.0,0.0,46,0.00,,,0.00,WUHU21623XXSP,2013-04-03 18:30:00,
2013-04-03 11:38:00,61.2,39.5,30.17,East,90,0.0,0.0,45,0.00,,,0.00,WUHU21623XXSP,2013-04-03 18:38:00,
2013-04-03 11:47:00,62.8,40.4,30.17,East,90,0.0,0.0,44,0.00,,,0.00,WUHU21623XXSP,2013-04-03 18:47:00,
2013-04-03 11:55:00,63.7,40.1,30.17,North,0,0.0,0.0,42,0.00,,,0.00,WUHU21623XXSP,2013-04-03 18:55:00,
2013-04-03 12:10:00,66.0,41.0,30.16,SE,135,0.0,0.0,40,0.00,,,0.00,WUHU21623XXSP,2013-04-03 19:10:00,
2013-04-03 12:25:00,68.2,40.7,30.15,NNW,337,0.0,0.0,37,0.00,,,0.00,WUHU21623XXSP,2013-04-03 19:25:00,
2013-04-03 12:47:00,69.6,39.1,30.14,WSW,247,0.0,0.0,33,0.00,,,0.00,WUHU21623XXSP,2013-04-03 19:47:00,
2013-04-03 13:02:00,71.2,40.5,30.13,North,0,0.0,0.0,33,0.00,,,0.00,WUHU21623XXSP,2013-04-03 20:02:00,
2013-04-03 13:14:00,72.5,38.4,30.13,NNW,337,0.0,0.0,29,0.00,,,0.00,WUHU21623XXSP,2013-04-03 20:14:00,
2013-04-03 13:19:00,73.0,37.8,30.13,NE,45,0.0,0.0,28,0.00,,,0.00,WUHU21623XXSP,2013-04-03 20:19:00,
2013-04-03 13:30:00,73.8,35.4,30.13,NNE,22,1.1,1.1,25,0.00,,,0.00,WUHU21623XXSP,2013-04-03 20:30:00,
2013-04-03 13:36:00,73.9,35.5,30.12,NNE,22,1.1,1.1,25,0.00,,,0.00,WUHU21623XXSP,2013-04-03 20:36:00,
2013-04-03 13:41:00,73.9,36.5,30.12,WNW,292,0.0,1.1,26,0.00,,,0.00,WUHU21623XXSP,2013-04-03 20:41:00,
2013-04-03 13:49:00,74.3,36.8,30.12,North,0,0.0,0.0,25,0.00,,,0.00,WUHU21623XXSP,2013-04-03 20:49:00,
2013-04-03 14:15:00,75.0,35.4,30.12,NW,315,7.4,7.4,22,0.00,,,0.00,WUHU21623XXSP,2013-04-03 21:15:00,
2013-04-03 14:23:00,75.2,33.7,30.11,NNW,337,4.7,7.4,22,0.00,,,0.00,WUHU21623XXSP,2013-04-03 21:23:00,
2013-04-03 14:34:00,75.0,32.3,30.11,SW,225,0.0,0.0,21,0.00,,,0.00,WUHU21623XXSP,2013-04-03 21:34:00,
2013-04-03 15:08:00,75.9,34.1,30.09,SSE,157,2.2,2.2,22,0.00,,,0.00,WUHU21623XXSP,2013-04-03 22:08:00,
2013-04-03 15:13:00,75.7,33.9,30.09,SSW,202,3.4,3.4,22,0.00,,,0.00,WUHU21623XXSP,2013-04-03 22:13:00,
2013-04-03 15:53:00,73.8,32.3,30.09,SSW,202,0.0,0.0,22,0.00,,,0.00,WUHU21623XXSP,2013-04-03 22:53:00,
2013-04-03 15:58:00,73.6,32.2,30.08,South,180,0.0,0.0,22,0.00,,,0.00,WUHU21623XXSP,2013-04-03 22:58:00,
2013-04-03 16:06:00,73.4,33.0,30.08,SW,225,0.0,0.0,23,0.00,,,0.00,WUHU21623XXSP,2013-04-03 23:06:00,
2013-04-03 16:14:00,73.2,33.9,30.07,NNW,337,0.0,0.0,24,0.00,,,0.00,WUHU21623XXSP,2013-04-03 23:14:00,
2013-04-03 16:19:00,73.2,33.9,30.08,West,270,5.1,5.1,24,0.00,,,0.00,WUHU21623XXSP,2013-04-03 23:19:00,
2013-04-03 16:29:00,73.0,33.7,30.07,WSW,247,3.8,3.8,24,0.00,,,0.00,WUHU21623XXSP,2013-04-03 23:29:00,
2013-04-03 16:34:00,72.5,33.3,30.08,SW,225,5.1,5.1,24,0.00,,,0.00,WUHU21623XXSP,2013-04-03 23:34:00,
2013-04-03 16:53:00,71.4,33.4,30.07,ESE,112,10.5,10.5,25,0.00,,,0.00,WUHU21623XXSP,2013-04-03 23:53:00,
2013-04-03 17:10:00,69.6,33.9,30.06,NE,45,0.0,0.0,27,0.00,,,0.00,WUHU21623XXSP,2013-04-04 00:10:00,
2013-04-03 17:19:00,69.3,34.5,30.07,SE,135,0.0,0.0,29,0.00,,,0.00,WUHU21623XXSP,2013-04-04 00:19:00,
2013-04-03 17:25:00,69.1,35.4,30.07,West,270,0.0,0.0,29,0.00,,,0.00,WUHU21623XXSP,2013-04-04 00:25:00,
2013-04-03 17:30:00,68.9,35.2,30.07,South,180,0.0,0.0,29,0.00,,,0.00,WUHU21623XXSP,2013-04-04 00:30:00,
2013-04-03 17:35:00,68.9,36.2,30.08,WNW,292,0.0,0.0,30,0.00,,,0.00,WUHU21623XXSP,2013-04-04 00:35:00,
2013-04-03 17:42:00,68.7,36.1,30.07,SW,225,3.8,3.8,30,0.00,,,0.00,WUHU21623XXSP,2013-04-04 00:42:00,
2013-04-03 17:53:00,68.2,36.3,30.07,West,270,0.7,0.7,31,0.00,,,0.00,WUHU21623XXSP,2013-04-04 00:53:00,
2013-04-03 17:58:00,68.0,36.2,30.07,South,180,0.0,0.7,31,0.00,,,0.00,WUHU21623XXSP,2013-04-04 00:58:00,
2013-04-03 18:03:00,67.8,36.0,30.07,West,270,0.9,0.9,31,0.00,,,0.00,WUHU21623XXSP,2013-04-04 01:03:00,
2013-04-03 18:10:00,67.6,35.9,30.07,SSW,202,8.9,8.9,31,0.00,,,0.00,WUHU21623XXSP,2013-04-04 01:10:00,
2013-04-03 18:15:00,67.3,35.7,30.06,SW,225,0.0,8.9,31,0.00,,,0.00,WUHU21623XXSP,2013-04-04 01:15:00,
2013-04-03 18:20:00,67.1,35.4,30.07,SSW,202,8.9,8.9,31,0.00,,,0.00,WUHU21623XXSP,2013-04-04 01:20:00,
2013-04-03 18:25:00,66.9,36.0,30.07,South,180,6.7,8.9,32,0.00,,,0.00,WUHU21623XXSP,2013-04-04 01:25:00,
2013-04-03 18:49:00,66.0,35.3,30.07,SSE,157,0.0,0.0,33,0.00,,,0.00,WUHU21623XXSP,2013-04-04 01:49:00,
2013-04-03 18:55:00,65.8,35.8,30.07,WNW,292,0.9,0.9,33,0.00,,,0.00,WUHU21623XXSP,2013-04-04 01:55:00,
2013-04-03 19:00:00,65.5,35.5,30.08,SSW,202,0.0,0.9,34,0.00,,,0.00,WUHU21623XXSP,2013-04-04 02:00:00,
2013-04-03 19:10:00,64.9,35.7,30.07,North,0,0.0,0.0,34,0.00,,,0.00,WUHU21623XXSP,2013-04-04 02:10:00,
2013-04-03 19:15:00,64.8,35.6,30.07,North,0,0.0,0.0,34,0.00,,,0.00,WUHU21623XXSP,2013-04-04 02:15:00,
2013-04-03 19:25:00,64.0,35.6,30.07,NNE,22,0.0,0.0,35,0.00,,,0.00,WUHU21623XXSP,2013-04-04 02:25:00,
2013-04-03 19:30:00,63.7,35.3,30.07,SSW,202,0.0,0.0,35,0.00,,,0.00,WUHU21623XXSP,2013-04-04 02:30:00,
2013-04-03 19:35:00,63.3,35.0,30.07,NW,315,0.0,0.0,35,0.00,,,0.00,WUHU21623XXSP,2013-04-04 02:35:00,
2013-04-03 19:40:00,63.1,34.8,30.08,West,270,0.0,0.0,35,0.00,,,0.00,WUHU21623XXSP,2013-04-04 02:40:00,
2013-04-03 19:45:00,62.8,34.5,30.08,North,0,0.0,0.0,35,0.00,,,0.00,WUHU21623XXSP,2013-04-04 02:45:00,
2013-04-03 19:52:00,62.1,33.9,30.08,North,0,0.0,0.0,35,0.00,,,0.00,WUHU21623XXSP,2013-04-04 02:52:00,
2013-04-03 19:59:00,61.5,33.4,30.09,SSE,157,0.0,0.0,35,0.00,,,0.00,WUHU21623XXSP,2013-04-04 02:59:00,
2013-04-03 20:04:00,61.3,33.2,30.09,SSE,157,0.0,0.0,35,0.00,,,0.00,WUHU21623XXSP,2013-04-04 03:04:00,
2013-04-03 20:09:00,61.0,32.9,30.09,SE,135,0.0,0.0,35,0.00,,,0.00,WUHU21623XXSP,2013-04-04 03:09:00,
2013-04-03 20:16:00,60.4,32.4,30.09,ENE,67,0.0,0.0,35,0.00,,,0.00,WUHU21623XXSP,2013-04-04 03:16:00,
2013-04-03 20:27:00,59.5,31.6,30.09,NE,45,0.0,0.0,35,0.00,,,0.00,WUHU21623XXSP,2013-04-04 03:27:00,
2013-04-03 20:32:00,59.2,31.3,30.09,NE,45,0.0,0.0,35,0.00,,,0.00,WUHU21623XXSP,2013-04-04 03:32:00,
2013-04-03 20:37:00,58.6,31.6,30.09,East,90,0.0,0.0,36,0.00,,,0.00,WUHU21623XXSP,2013-04-04 03:37:00,
2013-04-03 20:46:00,57.9,30.9,30.09,East,90,0.0,0.0,36,0.00,,,0.00,WUHU21623XXSP,2013-04-04 03:46:00,
2013-04-03 20:51:00,57.6,30.6,30.09,ESE,112,0.0,0.0,36,0.00,,,0.00,WUHU21623XXSP,2013-04-04 03:51:00,
2013-04-03 20:56:00,57.2,31.0,30.09,ENE,67,0.0,0.0,37,0.00,,,0.00,WUHU21623XXSP,2013-04-04 03:56:00,
2013-04-03 21:01:00,56.8,30.6,30.09,ESE,112,0.0,0.0,37,0.00,,,0.00,WUHU21623XXSP,2013-04-04 04:01:00,
2013-04-03 21:02:00,56.8,30.6,30.09,ESE,112,0.0,0.0,37,0.00,,,0.00,WUHU21623XXSP,2013-04-04 04:02:00,
2013-04-03 21:12:00,55.9,30.5,30.10,East,90,0.0,0.0,38,0.00,,,0.00,WUHU21623XXSP,2013-04-04 04:12:00,
2013-04-03 21:20:00,55.2,29.9,30.09,NE,45,0.0,0.0,38,0.00,,,0.00,WUHU21623XXSP,2013-04-04 04:20:00,
2013-04-03 21:26:00,55.0,30.4,30.10,NE,45,0.0,0.0,39,0.00,,,0.00,WUHU21623XXSP,2013-04-04 04:26:00,
2013-04-03 21:37:00,54.7,30.1,30.10,NE,45,0.0,0.0,39,0.00,,,0.00,WUHU21623XXSP,2013-04-04 04:37:00,
2013-04-03 21:42:00,54.7,30.1,30.10,SSE,157,0.0,0.0,39,0.00,,,0.00,WUHU21623XXSP,2013-04-04 04:42:00,
2013-04-03 21:48:00,54.3,29.8,30.09,ENE,67,0.0,0.0,39,0.00,,,0.00,WUHU21623XXSP,2013-04-04 04:48:00,
2013-04-03 22:12:00,53.8,30.0,30.10,East,90,0.0,0.0,40,0.00,,,0.00,WUHU21623XXSP,2013-04-04 05:12:00,
2013-04-03 22:20:00,53.4,29.7,30.10,ESE,112,0.0,0.0,40,0.00,,,0.00,WUHU21623XXSP,2013-04-04 05:20:00,
2013-04-03 22:29:00,53.2,29.5,30.10,ENE,67,0.0,0.0,40,0.00,,,0.00,WUHU21623XXSP,2013-04-04 05:29:00,
2013-04-03 22:35:00,52.9,29.2,30.10,ESE,112,0.0,0.0,40,0.00,,,0.00,WUHU21623XXSP,2013-04-04 05:35:00,
2013-04-03 22:40:00,52.7,29.0,30.10,ESE,112,0.0,0.0,40,0.00,,,0.00,WUHU21623XXSP,2013-04-04 05:40:00,
2013-04-03 22:45:00,52.5,28.9,30.10,SE,135,0.0,0.0,40,0.00,,,0.00,WUHU21623XXSP,2013-04-04 05:45:00,
2013-04-03 23:06:00,51.1,28.1,30.10,South,180,0.0,0.0,41,0.00,,,0.00,WUHU21623XXSP,2013-04-04 06:06:00,
2013-04-03 23:11:00,50.9,28.0,30.10,South,180,0.0,0.0,41,0.00,,,0.00,WUHU21623XXSP,2013-04-04 06:11:00,
2013-04-03 23:31:00,49.3,27.1,30.09,NE,45,0.0,0.0,42,0.00,,,0.00,WUHU21623XXSP,2013-04-04 06:31:00,
2013-04-03 23:37:00,48.9,26.7,30.09,East,90,0.0,0.0,42,0.00,,,0.00,WUHU21623XXSP,2013-04-04 06:37:00,
2013-04-03 23:44:00,48.4,26.8,30.09,ESE,112,0.0,0.0,43,0.00,,,0.00,WUHU21623XXSP,2013-04-04 06:44:00,
2013-04-03 23:56:00,48.0,26.4,30.09,ENE,67,0.0,0.0,43,0.00,,,0.00,WUHU21623XXSP,2013-04-04 06:56:00,